Time;durP1;ratioP1;P1;durP2;ratioP2;P2;SDS_P1;SDS_P2;PMS_P1;PMS_P2;Temp;Humidity;BMP_temperature;BMP_pressure;BME280_temperature;BME280_humidity;BME280_pressure;Samples;Min_cycle;Max_cycle;Signal;HPM_P1;HPM_P2
2022/06/04 00:00:20;;;;;;;4.82;2.40;;;;;;;16.01;100.00;96292.78;4975159;28;20683;-70
2022/06/04 00:02:48;;;;;;;6.72;2.47;;;;;;;16.01;100.00;96293.63;4973572;28;20203;-70
2022/06/04 00:05:18;;;;;;;5.90;2.40;;;;;;;16.07;100.00;96291.97;4973971;28;20195;-70
2022/06/04 00:07:45;;;;;;;4.82;2.38;;;;;;;16.01;100.00;96288.31;4974055;28;21308;-70
2022/06/04 00:15:45;;;;;;;3.00;2.15;;;;;;;15.74;100.00;96303.69;4977921;28;20221;-70
2022/06/04 00:18:12;;;;;;;4.60;2.10;;;;;;;15.86;100.00;96301.00;4977894;28;20238;-70
2022/06/04 00:20:39;;;;;;;4.97;2.30;;;;;;;15.83;100.00;96307.78;4977874;28;20207;-70
2022/06/04 00:23:08;;;;;;;2.35;1.90;;;;;;;15.84;100.00;96306.75;4977302;28;20203;-70
2022/06/04 00:25:37;;;;;;;4.57;2.10;;;;;;;15.90;100.00;96306.75;4977973;28;20207;-70
2022/06/04 00:28:08;;;;;;;3.47;2.15;;;;;;;15.94;100.00;96300.78;4977595;28;20223;-70
2022/06/04 00:30:35;;;;;;;4.13;1.65;;;;;;;15.79;100.00;96303.91;4978026;28;20206;-70
2022/06/04 00:33:01;;;;;;;5.15;2.17;;;;;;;15.59;100.00;96309.25;4976691;28;20226;-70
2022/06/04 00:35:29;;;;;;;2.47;2.00;;;;;;;15.81;100.00;96304.50;4977634;28;20199;-70
2022/06/04 00:37:56;;;;;;;2.75;2.03;;;;;;;15.65;100.00;96307.59;4977587;28;20234;-70
2022/06/04 00:40:32;;;;;;;3.90;2.05;;;;;;;15.52;100.00;96307.59;4977447;28;20202;-70
2022/06/04 00:42:59;;;;;;;5.00;2.83;;;;;;;15.33;100.00;96303.13;4976707;28;20749;-70
2022/06/04 00:46:32;;;;;;;3.42;2.42;;;;;;;15.83;100.00;96297.13;4977723;28;21038;-70
2022/06/04 00:48:59;;;;;;;3.50;2.05;;;;;;;15.53;100.00;96301.25;4972631;28;20723;-70
2022/06/04 00:51:27;;;;;;;5.32;1.90;;;;;;;15.41;100.00;96300.25;4977261;28;20211;-70
2022/06/04 00:53:56;;;;;;;8.68;2.60;;;;;;;15.58;100.00;96310.25;4976494;28;20936;-70
2022/06/04 00:56:34;;;;;;;5.88;2.67;;;;;;;15.67;100.00;96305.53;4977513;28;20230;-70
2022/06/04 00:59:17;;;;;;;5.80;2.70;;;;;;;15.85;100.00;96301.22;4977259;28;20211;-70
2022/06/04 01:01:52;;;;;;;6.25;2.88;;;;;;;15.86;100.00;96300.22;4977598;28;20207;-70
2022/06/04 01:04:49;;;;;;;7.18;3.38;;;;;;;15.93;100.00;96293.03;4976847;28;20206;-70
2022/06/04 01:07:32;;;;;;;5.57;3.20;;;;;;;15.84;100.00;96290.81;4976644;28;20368;-70
2022/06/04 01:10:23;;;;;;;5.93;3.30;;;;;;;15.79;100.00;96279.97;4977124;28;20203;-70
2022/06/04 01:13:08;;;;;;;7.82;2.30;;;;;;;15.65;100.00;96286.34;4976467;28;20238;-70
2022/06/04 01:15:51;;;;;;;3.42;2.20;;;;;;;15.64;100.00;96284.69;4977106;28;20307;-70
2022/06/04 01:18:31;;;;;;;17.70;3.80;;;;;;;15.69;100.00;96285.69;4977083;28;20210;-70
2022/06/04 01:21:08;;;;;;;6.20;2.80;;;;;;;15.60;100.00;96286.13;4977513;28;20211;-70
2022/06/04 01:24:09;;;;;;;4.32;2.80;;;;;;;15.65;100.00;96292.47;4975416;28;20195;-70
2022/06/04 01:26:49;;;;;;;9.85;3.30;;;;;;;15.77;100.00;96285.50;4976455;28;20249;-70
2022/06/04 01:29:17;;;;;;;5.70;3.28;;;;;;;15.65;100.00;96289.00;4977012;28;20674;-70
2022/06/04 01:31:48;;;;;;;6.10;3.13;;;;;;;15.62;100.00;96292.06;4976568;28;20215;-70
2022/06/04 01:34:21;;;;;;;12.45;3.08;;;;;;;15.72;100.00;96282.66;4976309;28;20204;-70
2022/06/04 01:36:52;;;;;;;5.38;3.13;;;;;;;15.81;100.00;96285.88;4977080;28;20227;-70
2022/06/04 01:39:23;;;;;;;6.22;2.70;;;;;;;15.82;100.00;96287.53;4976658;28;20211;-70
2022/06/04 01:41:54;;;;;;;5.05;2.70;;;;;;;15.64;100.00;96295.31;4976736;28;20207;-70
2022/06/04 01:44:24;;;;;;;5.82;2.92;;;;;;;15.58;100.00;96296.13;4976214;28;20603;-70
2022/06/04 01:46:55;;;;;;;5.20;2.85;;;;;;;15.69;100.00;96295.53;4976342;28;20600;-70
2022/06/04 01:49:27;;;;;;;5.18;2.88;;;;;;;15.84;100.00;96296.13;4973847;28;20348;-70
2022/06/04 01:51:58;;;;;;;7.57;3.60;;;;;;;15.87;100.00;96292.03;4976279;28;20691;-70
2022/06/04 01:54:32;;;;;;;4.25;3.00;;;;;;;15.95;100.00;96289.13;4975738;28;20204;-70
2022/06/04 01:57:06;;;;;;;8.10;3.25;;;;;;;16.09;100.00;96306.69;4976237;28;20239;-70
2022/06/04 01:59:37;;;;;;;8.48;3.78;;;;;;;15.93;100.00;96311.63;4976508;28;20690;-70
2022/06/04 02:02:08;;;;;;;10.20;3.45;;;;;;;15.93;100.00;96306.31;4976033;28;20200;-70
2022/06/04 02:04:40;;;;;;;6.53;2.97;;;;;;;15.86;100.00;96300.22;4975110;28;20207;-70
2022/06/04 02:10:02;;;;;;;8.50;4.32;;;;;;;16.22;100.00;96295.19;4976132;28;20275;-70
2022/06/04 02:12:33;;;;;;;8.82;4.45;;;;;;;16.26;100.00;96296.44;4975538;28;20227;-70
2022/06/04 02:15:01;;;;;;;12.00;4.65;;;;;;;16.29;100.00;96296.81;4976194;28;21019;-70
2022/06/04 02:17:29;;;;;;;9.43;4.53;;;;;;;16.22;100.00;96289.88;4975894;28;20721;-70
2022/06/04 02:19:56;;;;;;;11.95;4.72;;;;;;;16.29;100.00;96294.16;4973951;28;20211;-70
2022/06/04 02:22:22;;;;;;;8.68;4.75;;;;;;;16.39;100.00;96294.53;4974965;28;20211;-70
2022/06/04 02:24:49;;;;;;;14.32;4.70;;;;;;;16.43;100.00;96286.94;4976469;28;20208;-70
2022/06/04 02:27:15;;;;;;;10.30;4.30;;;;;;;16.43;100.00;96287.75;4976239;28;20227;-70
2022/06/04 02:29:43;;;;;;;14.93;5.05;;;;;;;16.46;100.00;96279.38;4976122;28;20207;-70
2022/06/04 02:32:18;;;;;;;11.25;4.82;;;;;;;16.46;100.00;96278.53;4976440;28;20203;-70
2022/06/04 02:34:58;;;;;;;14.98;5.25;;;;;;;16.60;100.00;96283.59;4974989;28;20702;-70
2022/06/04 02:37:30;;;;;;;12.90;4.68;;;;;;;16.54;100.00;96281.78;4976223;28;20215;-70
2022/06/04 02:40:06;;;;;;;13.60;5.30;;;;;;;16.61;100.00;96285.22;4976530;28;20224;-70
2022/06/04 02:42:38;;;;;;;11.25;4.70;;;;;;;16.38;100.00;96281.44;4975026;28;20199;-70
2022/06/04 02:45:13;;;;;;;17.15;5.22;;;;;;;16.60;100.00;96288.94;4976047;28;20204;-70
2022/06/04 02:47:43;;;;;;;16.58;5.15;;;;;;;16.48;100.00;96284.47;4975620;28;20222;-70
2022/06/04 02:50:17;;;;;;;16.63;5.38;;;;;;;16.41;100.00;96276.53;4974122;28;20200;-70
2022/06/04 02:52:45;;;;;;;15.63;4.40;;;;;;;16.52;100.00;96273.19;4975175;28;20231;-70
2022/06/04 02:55:16;;;;;;;10.65;4.72;;;;;;;16.56;100.00;96272.56;4976044;28;20218;-70
2022/06/04 02:57:46;;;;;;;7.38;4.32;;;;;;;16.32;100.00;96277.78;4975483;28;20231;-70
2022/06/04 03:00:17;;;;;;;29.30;5.20;;;;;;;16.35;100.00;96289.84;4975752;28;20678;-70
2022/06/04 03:02:45;;;;;;;15.35;5.10;;;;;;;16.34;100.00;96289.03;4975395;28;20207;-70
2022/06/04 03:05:14;;;;;;;12.50;5.70;;;;;;;16.50;100.00;96292.03;4975325;28;21339;-70
2022/06/04 03:07:44;;;;;;;10.77;5.57;;;;;;;16.56;100.00;96288.53;4975261;28;20703;-70
2022/06/04 03:10:14;;;;;;;21.35;6.15;;;;;;;16.58;100.00;96301.59;4975893;28;20400;-70
2022/06/04 03:12:41;;;;;;;16.98;5.95;;;;;;;16.54;100.00;96297.75;4974783;28;20862;-70
2022/06/04 03:15:09;;;;;;;17.45;6.35;;;;;;;16.59;100.00;96297.94;4975651;28;20207;-70
2022/06/04 03:17:37;;;;;;;14.70;6.50;;;;;;;16.66;100.00;96296.88;4975352;28;20725;-70
2022/06/04 03:20:07;;;;;;;16.55;7.05;;;;;;;16.64;100.00;96285.63;4975731;28;20199;-70
2022/06/04 03:22:34;;;;;;;17.83;7.93;;;;;;;16.63;100.00;96288.50;4974805;28;20661;-70
2022/06/04 03:25:00;;;;;;;23.90;8.27;;;;;;;16.61;100.00;96285.22;4975110;28;20574;-70
2022/06/04 03:27:28;;;;;;;16.90;7.82;;;;;;;16.72;100.00;96277.38;4975004;28;20223;-70
2022/06/04 03:29:54;;;;;;;25.17;8.40;;;;;;;16.67;100.00;96273.72;4975546;28;20214;-70
2022/06/04 03:32:21;;;;;;;18.60;8.68;;;;;;;16.74;100.00;96274.53;4974733;28;20210;-70
2022/06/04 03:34:49;;;;;;;23.83;9.07;;;;;;;16.80;100.00;96282.47;4975124;28;20207;-70
2022/06/04 03:37:16;;;;;;;28.13;9.52;;;;;;;16.64;100.00;96282.16;4974840;28;20223;-70
2022/06/04 03:39:43;;;;;;;22.50;9.18;;;;;;;16.72;100.00;96276.56;4975399;28;20215;-70
2022/06/04 03:42:10;;;;;;;20.98;9.45;;;;;;;16.77;100.00;96279.41;4975444;28;20908;-70
2022/06/04 03:44:36;;;;;;;19.08;8.82;;;;;;;16.63;100.00;96276.00;4974535;28;20203;-70
2022/06/04 03:47:05;;;;;;;23.88;10.30;;;;;;;16.73;100.00;96273.69;4974683;28;20238;-70
2022/06/04 03:49:31;;;;;;;26.42;10.23;;;;;;;16.81;100.00;96286.72;4972162;28;20210;-70
2022/06/04 03:52:00;;;;;;;24.35;10.82;;;;;;;17.00;100.00;96287.66;4975382;28;20244;-70
2022/06/04 03:59:50;;;;;;;20.65;10.43;;;;;;;17.25;100.00;96306.13;4966280;28;20582;-70
2022/06/04 04:02:17;;;;;;;20.60;9.68;;;;;;;16.83;100.00;96305.97;4974030;28;20214;-70
2022/06/04 04:04:43;;;;;;;25.63;11.40;;;;;;;16.90;100.00;96308.59;4974761;28;20260;-70
2022/06/04 04:07:14;;;;;;;20.33;10.00;;;;;;;16.99;100.00;96313.44;4974739;28;20263;-70
2022/06/04 04:09:40;;;;;;;21.83;8.95;;;;;;;16.94;100.00;96315.13;4974734;28;20240;-70
2022/06/04 04:12:07;;;;;;;23.27;8.85;;;;;;;17.00;100.00;96323.06;4974384;28;21042;-70
2022/06/04 04:14:34;;;;;;;19.55;10.10;;;;;;;16.93;100.00;96327.63;4974012;28;20223;-70
2022/06/04 04:17:01;;;;;;;18.33;9.70;;;;;;;16.96;100.00;96326.38;4975955;28;20242;-70
2022/06/04 04:19:30;;;;;;;16.08;8.70;;;;;;;17.12;100.00;96332.84;4974866;28;20694;-70
2022/06/04 04:21:57;;;;;;;18.35;8.52;;;;;;;17.03;100.00;96321.84;4974640;28;20210;-70
2022/06/04 04:24:25;;;;;;;16.58;8.80;;;;;;;17.12;100.00;96327.50;4974019;28;20203;-70
2022/06/04 04:26:52;;;;;;;19.75;9.13;;;;;;;16.91;100.00;96327.00;4974430;28;20238;-70
2022/06/04 04:29:18;;;;;;;24.48;9.98;;;;;;;16.94;100.00;96320.44;4974494;28;20203;-70
2022/06/04 04:31:45;;;;;;;16.65;9.00;;;;;;;16.98;100.00;96324.31;4974396;28;20207;-71
2022/06/04 04:34:12;;;;;;;18.98;9.10;;;;;;;17.13;100.00;96334.47;4973836;28;20230;-71
2022/06/04 04:36:38;;;;;;;20.70;10.13;;;;;;;17.26;100.00;96325.59;4974623;28;20235;-71
2022/06/04 04:39:05;;;;;;;18.25;9.07;;;;;;;17.19;100.00;96322.94;4974573;28;20203;-71
2022/06/04 04:41:33;;;;;;;20.33;9.00;;;;;;;17.27;100.00;96324.56;4974057;28;20207;-71
2022/06/04 04:43:59;;;;;;;14.73;8.18;;;;;;;17.30;100.00;96324.97;4973974;28;20204;-71
2022/06/04 04:46:25;;;;;;;13.25;7.47;;;;;;;17.13;100.00;96310.50;4974330;28;20238;-71
2022/06/04 04:48:52;;;;;;;13.70;7.53;;;;;;;17.21;100.00;96310.25;4970776;28;20207;-71
2022/06/04 04:51:21;;;;;;;12.98;7.50;;;;;;;17.25;100.00;96316.00;4974369;28;20702;-71
2022/06/04 04:53:49;;;;;;;15.75;8.23;;;;;;;17.35;100.00;96327.78;4974463;28;20413;-71
2022/06/04 04:56:16;;;;;;;11.73;6.88;;;;;;;17.14;100.00;96332.63;4974290;28;20714;-71
2022/06/04 04:58:44;;;;;;;12.77;6.35;;;;;;;16.70;100.00;96353.13;4975602;28;20762;-71
2022/06/04 05:01:14;;;;;;;14.95;7.35;;;;;;;16.94;100.00;96371.03;4977948;28;20662;-71
2022/06/04 05:03:44;;;;;;;17.95;7.30;;;;;;;16.98;100.00;96348.28;4976672;28;20256;-71
2022/06/04 05:06:12;;;;;;;16.15;7.95;;;;;;;16.99;100.00;96331.28;4977236;28;20223;-71
2022/06/04 05:08:39;;;;;;;19.33;8.50;;;;;;;17.14;100.00;96325.47;4977277;28;20628;-71
2022/06/04 05:11:07;;;;;;;16.73;8.32;;;;;;;17.23;100.00;96324.16;4977373;28;20819;-71
2022/06/04 05:13:34;;;;;;;15.70;9.15;;;;;;;17.08;100.00;96306.03;4976546;28;20227;-71
2022/06/04 05:16:02;;;;;;;18.42;9.43;;;;;;;17.30;100.00;96308.97;4977077;28;20211;-71
2022/06/04 05:18:28;;;;;;;17.73;9.40;;;;;;;17.19;100.00;96317.63;4977105;28;20203;-71
2022/06/04 05:20:55;;;;;;;19.38;9.60;;;;;;;17.12;100.00;96334.69;4977521;28;20207;-71
2022/06/04 05:23:22;;;;;;;18.42;8.70;;;;;;;17.26;100.00;96318.44;4976815;28;20195;-71
2022/06/04 05:25:48;;;;;;;18.70;9.77;;;;;;;17.21;100.00;96307.56;4977373;28;20218;-71
2022/06/04 05:28:15;;;;;;;19.52;9.65;;;;;;;17.22;100.00;96314.53;4976799;28;20207;-71
2022/06/04 05:30:41;;;;;;;18.58;10.00;;;;;;;17.23;100.00;96320.66;4977023;28;20694;-71
2022/06/04 05:33:09;;;;;;;18.02;9.57;;;;;;;17.47;100.00;96310.06;4976484;28;20199;-71
2022/06/04 05:35:35;;;;;;;15.13;8.98;;;;;;;17.54;100.00;96326.81;4976576;28;21167;-71
2022/06/04 05:38:02;;;;;;;21.15;10.07;;;;;;;17.69;100.00;96321.97;4976967;28;20223;-71
2022/06/04 05:40:28;;;;;;;15.45;8.45;;;;;;;17.68;100.00;96311.53;4976703;28;20250;-71
2022/06/04 05:42:55;;;;;;;16.98;9.10;;;;;;;17.60;100.00;96296.63;4975977;28;20211;-71
2022/06/04 05:45:21;;;;;;;14.57;8.48;;;;;;;17.60;100.00;96282.50;4976857;28;20203;-71
2022/06/04 05:47:49;;;;;;;13.43;8.20;;;;;;;17.30;100.00;96284.19;4975654;28;20227;-71
2022/06/04 05:50:17;;;;;;;16.17;8.32;;;;;;;17.53;100.00;96293.22;4976347;28;20203;-71
2022/06/04 05:52:43;;;;;;;15.07;8.45;;;;;;;17.46;100.00;96316.41;4975931;28;20207;-71
2022/06/04 05:55:10;;;;;;;16.75;8.80;;;;;;;17.63;100.00;96325.53;4976770;28;20262;-71
2022/06/04 05:57:37;;;;;;;13.45;7.75;;;;;;;17.72;100.00;96325.00;4976368;28;20231;-71
2022/06/04 06:00:07;;;;;;;13.98;8.35;;;;;;;17.89;100.00;96347.41;4976997;28;20211;-71
2022/06/04 06:02:34;;;;;;;15.77;8.27;;;;;;;17.85;100.00;96361.41;4975353;28;20699;-71
2022/06/04 06:05:02;;;;;;;13.57;8.02;;;;;;;17.59;100.00;96388.28;4976504;28;20290;-71
2022/06/04 06:07:29;;;;;;;10.35;6.57;;;;;;;17.50;100.00;96405.56;4976954;28;20230;-71
2022/06/04 06:09:56;;;;;;;11.30;5.85;;;;;;;17.26;100.00;96429.47;4975603;28;20209;-71
2022/06/04 06:12:24;;;;;;;14.93;7.38;;;;;;;17.28;100.00;96486.03;4975373;28;20675;-71
2022/06/04 06:14:51;;;;;;;13.93;7.55;;;;;;;17.13;100.00;96488.94;4976497;28;20246;-71
2022/06/04 06:17:17;;;;;;;13.35;7.28;;;;;;;16.93;100.00;96466.06;4976878;28;20231;-71
2022/06/04 06:19:44;;;;;;;13.02;6.65;;;;;;;17.00;100.00;96469.50;4976013;28;20226;-71
2022/06/04 06:22:10;;;;;;;14.77;7.97;;;;;;;17.34;100.00;96442.56;4975941;28;20832;-71
2022/06/04 06:24:38;;;;;;;15.60;6.80;;;;;;;17.45;100.00;96445.34;4975971;28;20199;-71
2022/06/04 06:27:07;;;;;;;13.43;7.80;;;;;;;17.57;100.00;96464.16;4975952;28;20231;-71
2022/06/04 06:29:33;;;;;;;14.25;8.02;;;;;;;17.71;100.00;96455.84;4976255;28;20203;-73
2022/06/04 06:32:01;;;;;;;15.25;8.50;;;;;;;17.97;100.00;96456.47;4976267;28;20928;-73
2022/06/04 06:34:28;;;;;;;14.95;7.93;;;;;;;17.85;100.00;96460.06;4975465;28;20234;-73
2022/06/04 06:36:56;;;;;;;14.23;7.68;;;;;;;17.70;100.00;96458.72;4975970;28;20265;-73
2022/06/04 06:39:23;;;;;;;15.65;7.85;;;;;;;18.06;100.00;96454.34;4976589;28;20234;-73
2022/06/04 06:41:51;;;;;;;14.85;7.75;;;;;;;18.21;100.00;96452.22;4975679;28;20203;-71
2022/06/04 06:44:18;;;;;;;11.90;7.50;;;;;;;18.24;100.00;96455.25;4975261;28;20203;-71
2022/06/04 06:46:47;;;;;;;16.52;7.53;;;;;;;18.62;100.00;96440.72;4976141;28;21199;-71
2022/06/04 06:49:17;;;;;;;13.93;8.00;;;;;;;18.80;100.00;96442.56;4973307;28;20207;-71
2022/06/04 06:51:47;;;;;;;13.30;8.05;;;;;;;19.17;100.00;96440.50;4975619;28;20218;-71
2022/06/04 06:54:14;;;;;;;12.25;7.22;;;;;;;19.17;100.00;96428.97;4975133;28;20914;-71
2022/06/04 06:56:42;;;;;;;11.10;6.10;;;;;;;19.35;100.00;96431.66;4976078;28;20222;-71
2022/06/04 06:59:10;;;;;;;9.77;6.22;;;;;;;19.44;100.00;96425.75;4975186;28;20204;-71
2022/06/04 07:01:37;;;;;;;9.13;5.50;;;;;;;19.80;100.00;96421.09;4975530;28;20239;-71
2022/06/04 07:04:05;;;;;;;9.70;5.38;;;;;;;19.89;100.00;96424.25;4974976;28;20203;-71
2022/06/04 07:06:35;;;;;;;7.45;4.68;;;;;;;20.17;100.00;96425.25;4974881;28;20274;-71
2022/06/04 07:09:03;;;;;;;6.25;4.18;;;;;;;20.41;100.00;96429.56;4975944;28;20199;-72
2022/06/04 07:11:29;;;;;;;7.15;3.95;;;;;;;20.55;100.00;96425.63;4975548;28;21008;-71
2022/06/04 07:13:56;;;;;;;7.05;3.42;;;;;;;20.68;100.00;96430.72;4974160;28;20373;-71
2022/06/04 07:16:24;;;;;;;6.50;3.20;;;;;;;21.16;100.00;96429.38;4975149;28;20227;-71
2022/06/04 07:18:51;;;;;;;6.43;2.75;;;;;;;21.35;97.60;96401.34;4976696;28;20218;-71
2022/06/04 07:21:19;;;;;;;5.38;3.00;;;;;;;21.13;95.21;96403.88;4974987;28;20222;-71
2022/06/04 07:23:45;;;;;;;3.60;2.50;;;;;;;21.20;97.71;96393.81;4974204;28;21009;-71
2022/06/04 07:26:13;;;;;;;3.65;2.47;;;;;;;21.13;96.27;96389.66;4975748;28;21070;-71
2022/06/04 07:28:40;;;;;;;5.80;2.75;;;;;;;21.39;94.82;96399.81;4975062;28;20203;-71
2022/06/04 07:31:08;;;;;;;3.20;2.30;;;;;;;21.09;96.48;96383.97;4975068;28;20195;-71
2022/06/04 07:33:36;;;;;;;6.15;3.05;;;;;;;20.97;93.95;96380.50;4974258;28;20878;-71
2022/06/04 07:36:04;;;;;;;4.45;3.08;;;;;;;21.17;94.91;96377.41;4975436;28;20196;-71
2022/06/04 07:38:30;;;;;;;7.30;3.50;;;;;;;21.37;94.19;96383.94;4975185;28;20204;-71
2022/06/04 07:40:57;;;;;;;5.22;3.25;;;;;;;21.51;93.23;96379.97;4975205;28;20215;-71
2022/06/04 07:43:23;;;;;;;4.90;3.03;;;;;;;21.52;94.92;96381.59;4974405;28;20214;-71
2022/06/04 07:45:50;;;;;;;9.43;3.30;;;;;;;21.73;90.78;96378.22;4974652;28;20206;-71
2022/06/04 07:48:16;;;;;;;8.30;3.95;;;;;;;21.92;90.99;96387.66;4972167;28;20475;-71
2022/06/04 07:50:44;;;;;;;4.72;2.90;;;;;;;21.83;91.50;96403.34;4975272;28;20204;-71
2022/06/04 07:53:11;;;;;;;6.25;3.30;;;;;;;21.81;91.68;96401.97;4973855;28;20203;-71
2022/06/04 07:55:40;;;;;;;5.55;3.50;;;;;;;22.17;88.23;96387.03;4974644;28;20223;-71
2022/06/04 07:58:06;;;;;;;8.07;3.75;;;;;;;22.48;86.56;96367.66;4974907;28;20219;-71
2022/06/04 08:00:37;;;;;;;7.45;3.90;;;;;;;22.41;86.69;96371.56;4975308;28;20199;-71
2022/06/04 08:03:03;;;;;;;10.63;4.35;;;;;;;22.79;85.94;96380.44;4973957;28;20203;-71
2022/06/04 08:05:30;;;;;;;7.35;4.05;;;;;;;22.49;83.34;96368.44;4974912;28;20195;-71
2022/06/04 08:07:58;;;;;;;6.60;3.90;;;;;;;22.43;87.56;96370.25;4974777;28;20227;-71
2022/06/04 08:10:24;;;;;;;9.07;4.20;;;;;;;22.64;88.24;96377.53;4974679;28;20214;-71
2022/06/04 08:12:51;;;;;;;7.20;4.03;;;;;;;22.83;85.63;96370.81;4974126;28;20207;-71
2022/06/04 08:15:17;;;;;;;6.97;4.47;;;;;;;22.78;88.66;96371.56;4974921;28;20223;-71
2022/06/04 08:17:47;;;;;;;8.10;4.60;;;;;;;22.84;89.59;96367.06;4974461;28;20239;-71
2022/06/04 08:20:13;;;;;;;10.02;4.95;;;;;;;22.77;88.68;96335.00;4974878;28;20873;-71
2022/06/04 08:22:40;;;;;;;10.57;5.05;;;;;;;22.70;89.23;96338.94;4974036;28;20203;-71
2022/06/04 08:25:09;;;;;;;9.38;5.20;;;;;;;22.69;87.83;96343.50;4974369;28;20207;-72
2022/06/04 08:27:35;;;;;;;10.15;5.03;;;;;;;22.49;87.35;96345.09;4974306;28;20742;-72
2022/06/04 08:30:03;;;;;;;8.00;4.75;;;;;;;22.22;88.85;96346.84;4974949;28;20244;-72
2022/06/04 08:32:29;;;;;;;7.80;5.03;;;;;;;22.56;85.96;96331.50;4974228;28;20218;-72
2022/06/04 08:34:56;;;;;;;7.82;4.63;;;;;;;22.61;92.50;96328.88;4977885;28;20227;-72
2022/06/04 08:37:22;;;;;;;9.18;4.65;;;;;;;23.04;89.47;96324.31;4977591;28;20811;-74
2022/06/04 08:39:49;;;;;;;7.75;4.88;;;;;;;23.41;83.50;96328.78;4978651;28;21059;-72
2022/06/04 08:42:38;;;;;;;11.10;5.13;;;;;;;23.91;83.31;96331.94;4977611;28;20207;-73
2022/06/04 08:45:05;;;;;;;9.60;5.57;;;;;;;23.50;90.41;96324.56;4977904;28;20199;-72
2022/06/04 08:47:34;;;;;;;8.07;4.75;;;;;;;23.76;86.71;96323.75;4977841;28;20223;-73
2022/06/04 08:50:11;;;;;;;11.05;5.25;;;;;;;24.20;86.52;96321.38;4974535;28;20290;-73
2022/06/04 08:52:42;;;;;;;9.07;5.30;;;;;;;23.64;86.84;96321.19;4977124;28;20203;-72
2022/06/04 08:58:13;;;;;;;6.70;4.35;;;;;;;24.14;85.88;96316.22;4977521;28;20238;-72
2022/06/04 09:00:49;;;;;;;9.00;5.05;;;;;;;24.11;84.90;96324.84;4977579;28;20207;-71
2022/06/04 09:03:21;;;;;;;9.30;5.70;;;;;;;24.19;83.69;96327.03;4976322;28;20213;-72
2022/06/04 09:06:03;;;;;;;9.10;5.28;;;;;;;24.19;87.67;96329.72;4976534;28;20739;-72
2022/06/04 09:08:40;;;;;;;11.52;5.85;;;;;;;24.33;87.69;96331.72;4974723;28;20211;-73
2022/06/04 09:11:14;;;;;;;9.77;5.65;;;;;;;24.37;92.49;96337.41;4976398;28;20199;-72
2022/06/04 09:13:48;;;;;;;9.15;5.22;;;;;;;24.66;86.06;96342.97;4975290;28;20694;-72
2022/06/04 09:16:25;;;;;;;10.52;5.63;;;;;;;24.75;81.86;96352.19;4975153;28;20586;-72
2022/06/04 09:18:58;;;;;;;9.35;5.68;;;;;;;24.24;83.58;96359.41;4975933;28;20218;-73
2022/06/04 09:21:32;;;;;;;9.85;5.82;;;;;;;24.51;79.40;96376.31;4975178;28;20210;-72
2022/06/04 09:23:59;;;;;;;7.88;5.05;;;;;;;24.25;79.34;96375.28;4975441;28;20211;-72
2022/06/04 09:26:33;;;;;;;9.80;5.68;;;;;;;24.38;81.37;96384.81;4975774;28;20746;-72
2022/06/04 09:29:21;;;;;;;9.35;5.50;;;;;;;24.55;82.47;96390.91;4975607;28;21106;-72
2022/06/04 09:31:59;;;;;;;13.60;6.20;;;;;;;24.34;83.47;96397.19;4975872;28;20234;-73
2022/06/04 09:34:30;;;;;;;16.15;7.57;;;;;;;24.04;85.88;96389.69;4976003;28;20207;-72
2022/06/04 09:36:58;;;;;;;11.57;6.22;;;;;;;24.46;79.56;96381.66;4975473;28;20231;-72
2022/06/04 09:39:27;;;;;;;11.60;6.38;;;;;;;24.93;80.51;96391.38;4976286;28;20206;-73
2022/06/04 09:41:56;;;;;;;11.23;6.45;;;;;;;25.06;80.34;96394.44;4977076;28;20203;-72
2022/06/04 09:44:27;;;;;;;12.57;5.85;;;;;;;25.10;82.33;96389.34;4974949;28;20203;-73
2022/06/04 09:46:58;;;;;;;8.50;5.57;;;;;;;25.73;76.30;96397.94;4975989;28;20814;-72
2022/06/04 09:49:32;;;;;;;12.48;6.38;;;;;;;26.01;74.24;96398.25;4973790;28;20199;-73
2022/06/04 09:52:00;;;;;;;12.18;6.00;;;;;;;25.75;75.50;96402.00;4976130;28;20202;-72
2022/06/04 09:54:31;;;;;;;10.57;5.57;;;;;;;25.67;75.61;96404.38;4975731;28;20203;-72
2022/06/04 09:57:02;;;;;;;8.32;5.30;;;;;;;25.84;75.79;96397.69;4976713;28;20231;-72
2022/06/04 09:59:32;;;;;;;12.30;5.65;;;;;;;25.40;74.43;96403.75;4976758;28;20231;-72
2022/06/04 10:02:02;;;;;;;9.23;5.95;;;;;;;25.35;75.28;96398.34;4976233;28;20210;-72
2022/06/04 10:04:40;;;;;;;10.18;5.93;;;;;;;25.69;74.92;96404.91;4975635;28;20769;-72
2022/06/04 10:07:09;;;;;;;10.68;6.30;;;;;;;25.17;74.04;96409.59;4976255;28;20226;-73
2022/06/04 10:09:57;;;;;;;11.18;5.70;;;;;;;25.62;72.34;96402.47;4976367;28;20218;-73
2022/06/04 10:15:22;;;;;;;13.40;6.43;;;;;;;25.81;70.19;96394.72;4976323;28;20260;-73
2022/06/04 10:18:00;;;;;;;10.82;5.70;;;;;;;25.82;78.28;96405.25;4976029;28;20226;-72
2022/06/04 10:20:27;;;;;;;10.88;5.68;;;;;;;24.97;75.83;96404.06;4976685;28;20581;-73
2022/06/04 10:22:54;;;;;;;12.57;6.35;;;;;;;25.03;75.08;96394.94;4976132;28;20203;-73
2022/06/04 10:25:24;;;;;;;12.13;6.60;;;;;;;24.61;77.41;96388.75;4976237;28;20203;-72
2022/06/04 10:28:04;;;;;;;9.27;5.68;;;;;;;25.45;76.40;96377.59;4975779;28;20223;-72
2022/06/04 10:30:40;;;;;;;8.40;5.43;;;;;;;25.87;78.90;96378.25;4976267;28;20204;-72
2022/06/04 10:33:16;;;;;;;7.68;5.10;;;;;;;26.10;72.12;96373.13;4975069;28;20218;-73
2022/06/04 10:35:57;;;;;;;9.50;5.47;;;;;;;26.51;73.25;96372.06;4975942;28;20233;-73
2022/06/04 10:38:27;;;;;;;9.70;5.20;;;;;;;26.19;71.81;96370.69;4976144;28;21211;-72
2022/06/04 10:41:04;;;;;;;12.05;5.93;;;;;;;26.21;73.00;96369.34;4975996;28;20610;-72
2022/06/04 10:43:58;;;;;;;9.40;4.80;;;;;;;26.91;71.04;96374.66;4975060;28;20203;-72
2022/06/04 10:46:33;;;;;;;7.53;4.57;;;;;;;27.21;69.10;96365.41;4953563;28;20749;-73
2022/06/04 10:49:11;;;;;;;9.40;4.32;;;;;;;27.11;65.77;96376.25;4972690;28;20218;-73
2022/06/04 10:51:51;;;;;;;10.40;3.88;;;;;;;27.16;64.77;96378.94;4975263;28;21227;-72
2022/06/04 10:54:29;;;;;;;6.88;3.78;;;;;;;27.33;61.47;96378.59;4975051;28;20199;-72
2022/06/04 10:57:01;;;;;;;9.40;3.58;;;;;;;27.11;62.35;96370.84;4973313;28;20238;-72
2022/06/04 10:59:33;;;;;;;6.00;3.58;;;;;;;27.45;60.78;96365.53;4974502;28;21028;-72
2022/06/04 11:02:12;;;;;;;6.57;3.45;;;;;;;27.43;63.19;96363.13;4975442;28;20230;-73
2022/06/04 11:04:46;;;;;;;3.63;2.55;;;;;;;27.56;57.46;96367.94;4974312;28;20899;-72
2022/06/04 11:07:27;;;;;;;7.28;3.55;;;;;;;27.60;61.20;96368.22;4974823;28;20223;-73
2022/06/04 11:09:56;;;;;;;5.28;3.10;;;;;;;27.28;63.59;96365.91;4974080;28;20203;-73
2022/06/04 11:12:31;;;;;;;7.97;3.20;;;;;;;27.70;63.22;96368.97;4974097;28;20647;-73
2022/06/04 11:15:03;;;;;;;5.20;3.40;;;;;;;27.59;61.83;96361.97;4974675;28;20271;-73
2022/06/04 11:17:44;;;;;;;5.55;3.30;;;;;;;27.83;61.45;96366.41;4977981;28;20647;-73
2022/06/04 11:20:14;;;;;;;4.47;3.22;;;;;;;27.36;60.79;96359.09;4974376;28;20203;-72
2022/06/04 11:22:45;;;;;;;6.35;3.92;;;;;;;27.36;63.95;96367.22;4977166;28;20218;-72
2022/06/04 11:25:25;;;;;;;7.13;3.72;;;;;;;27.36;65.07;96362.59;4974966;28;20580;-73
2022/06/04 11:27:55;;;;;;;5.75;3.85;;;;;;;27.75;62.91;96366.22;4975085;28;20242;-73
2022/06/04 11:30:30;;;;;;;8.18;3.70;;;;;;;28.27;62.33;96364.47;4974961;28;20199;-73
2022/06/04 11:33:05;;;;;;;5.57;3.33;;;;;;;28.08;63.29;96368.97;4974692;28;20226;-73
2022/06/04 11:35:42;;;;;;;6.90;4.03;;;;;;;28.08;64.60;96360.81;4975406;28;20235;-72
2022/06/04 11:38:27;;;;;;;6.38;3.20;;;;;;;27.87;61.64;96366.66;4974575;28;20234;-73
2022/06/04 11:41:07;;;;;;;10.13;3.97;;;;;;;26.94;66.60;96371.41;4974566;28;20211;-73
2022/06/04 11:43:49;;;;;;;6.30;4.07;;;;;;;26.69;68.76;96366.91;4974575;28;20230;-73
2022/06/04 11:46:32;;;;;;;6.35;4.53;;;;;;;26.77;68.06;96357.38;4974785;28;20226;-73
2022/06/04 11:49:13;;;;;;;5.60;4.10;;;;;;;27.65;68.61;96360.03;4972675;28;20211;-73
2022/06/04 11:52:02;;;;;;;6.82;3.85;;;;;;;27.87;67.77;96370.19;4974805;28;20204;-73
2022/06/04 11:54:47;;;;;;;6.60;3.58;;;;;;;27.92;66.59;96359.31;4973427;28;20211;-71
2022/06/04 11:57:24;;;;;;;3.85;2.78;;;;;;;27.13;66.70;96363.25;4974990;28;20242;-73
2022/06/04 12:00:05;;;;;;;6.45;3.30;;;;;;;27.99;64.64;96358.97;4974996;28;20211;-73